Terminal Aerodrome Forecast
Issued by NWS

Home | Current Version | Previous Version | Text Only | Print | Product List | Glossary On
Versions: 1 2 3 4 5 6 7 8 9 10 11 12 13 14 15 16 17 18 19 20
800
FTUS41 KAKQ 062139 AAB
TAFPHF
TAF AMD
KPHF 062139Z 0622/0718 06012KT 1SM -RA BR OVC004
     FM062330 03010KT 2SM -RA BR OVC005
     FM070300 35008KT 5SM BR OVC006
     FM071200 34005KT P6SM BKN006
     FM071500 36007KT P6SM BKN010=

USA.gov is the U.S. government's official web portal to all federal, state and local government web resources and services.